Time;durP1;ratioP1;P1;durP2;ratioP2;P2;SDS_P1;SDS_P2;PMS_P1;PMS_P2;Temp;Humidity;BMP_temperature;BMP_pressure;BME280_temperature;BME280_humidity;BME280_pressure;Samples;Min_cycle;Max_cycle;Signal;HPM_P1;HPM_P2
2021/08/03 00:00:42;;;;;;;4.75;3.05;;;;;;;16.61;86.85;96259.44;5058859;28;20207;-72
2021/08/03 00:03:10;;;;;;;4.50;2.70;;;;;;;16.70;87.27;96263.47;5058413;28;20224;-72
2021/08/03 00:05:40;;;;;;;5.82;3.10;;;;;;;16.80;87.73;96258.50;5056944;28;20212;-73
2021/08/03 00:08:11;;;;;;;8.13;3.30;;;;;;;16.85;88.10;96250.69;5058326;28;20232;-73
2021/08/03 00:10:38;;;;;;;5.75;3.10;;;;;;;16.84;87.18;96262.38;5058407;28;20197;-73
2021/08/03 00:13:05;;;;;;;6.57;3.10;;;;;;;16.88;87.59;96249.44;5058338;28;20329;-73
2021/08/03 00:15:31;;;;;;;4.82;2.90;;;;;;;16.78;87.13;96249.91;5057223;28;20208;-73
2021/08/03 00:17:58;;;;;;;5.18;3.10;;;;;;;16.75;87.18;96247.69;5058311;28;20220;-73
2021/08/03 00:20:27;;;;;;;7.03;2.90;;;;;;;16.80;87.99;96245.22;5057877;28;20673;-72
2021/08/03 00:23:00;;;;;;;9.30;3.45;;;;;;;16.76;87.62;96237.84;5058089;28;20225;-73
2021/08/03 00:25:27;;;;;;;2.90;2.60;;;;;;;16.61;87.44;96239.97;5058236;28;20211;-74
2021/08/03 00:27:54;;;;;;;4.75;2.78;;;;;;;16.67;86.22;96236.47;5058243;28;20211;-73
2021/08/03 00:30:20;;;;;;;5.72;3.10;;;;;;;16.59;87.70;96234.06;5055419;28;20204;-72
2021/08/03 00:32:47;;;;;;;4.78;3.20;;;;;;;16.69;88.48;96235.22;5058109;28;20216;-72
2021/08/03 00:35:14;;;;;;;5.70;3.35;;;;;;;16.47;88.22;96234.97;5057048;28;20212;-73
2021/08/03 00:37:42;;;;;;;8.05;3.63;;;;;;;16.83;86.20;96233.31;5057475;28;20576;-73
2021/08/03 00:40:11;;;;;;;8.07;3.30;;;;;;;16.84;85.07;96233.09;5058304;28;20205;-72
2021/08/03 00:42:37;;;;;;;5.70;3.10;;;;;;;16.49;85.34;96239.03;5056822;28;20224;-71
2021/08/03 00:45:05;;;;;;;6.40;3.30;;;;;;;16.40;85.50;96235.00;5057544;28;20669;-71
2021/08/03 00:47:31;;;;;;;4.05;2.88;;;;;;;16.28;85.91;96233.22;5058112;28;20220;-73
2021/08/03 00:49:58;;;;;;;5.57;3.05;;;;;;;16.31;85.92;96230.94;5058361;28;20208;-72
2021/08/03 00:52:26;;;;;;;6.50;2.80;;;;;;;16.32;85.62;96237.91;5057490;28;20224;-72
2021/08/03 00:54:54;;;;;;;4.50;2.60;;;;;;;16.33;87.24;96228.91;5058811;28;20204;-72
2021/08/03 00:57:21;;;;;;;7.05;3.05;;;;;;;16.34;86.39;96235.03;5056692;28;20227;-73
2021/08/03 00:59:47;;;;;;;7.32;2.97;;;;;;;16.35;87.26;96239.31;5057279;28;20204;-73
2021/08/03 01:02:14;;;;;;;3.88;2.92;;;;;;;16.29;88.16;96246.28;5057910;28;20220;-73
2021/08/03 01:04:40;;;;;;;4.03;2.92;;;;;;;16.22;89.50;96242.03;5057233;28;20196;-73
2021/08/03 01:07:11;;;;;;;3.70;2.70;;;;;;;16.17;90.13;96242.63;5056705;28;20197;-72
2021/08/03 01:09:45;;;;;;;4.32;2.65;;;;;;;16.34;89.66;96243.00;5057664;28;20207;-71
2021/08/03 01:12:33;;;;;;;3.58;2.55;;;;;;;16.39;87.92;96249.31;5057647;28;20746;-73
2021/08/03 01:15:06;;;;;;;13.60;2.83;;;;;;;16.26;87.35;96248.56;5057137;28;20664;-73
2021/08/03 01:17:41;;;;;;;6.97;2.58;;;;;;;16.27;87.20;96247.56;5056620;28;20739;-72
2021/08/03 01:20:12;;;;;;;7.03;2.53;;;;;;;16.05;88.36;96240.84;5057670;28;20226;-73
2021/08/03 01:23:02;;;;;;;4.93;2.80;;;;;;;16.10;88.78;96243.69;5057291;28;20224;-72
2021/08/03 01:25:40;;;;;;;4.53;2.50;;;;;;;16.11;89.06;96243.47;5052679;28;21155;-73
2021/08/03 01:28:18;;;;;;;5.57;2.80;;;;;;;16.22;89.06;96239.38;5057342;28;20203;-72
2021/08/03 01:30:47;;;;;;;5.20;2.83;;;;;;;16.16;89.24;96238.34;5054330;28;20212;-73
2021/08/03 01:33:17;;;;;;;7.07;2.40;;;;;;;16.18;88.59;96238.16;5057489;28;20200;-71
2021/08/03 01:35:44;;;;;;;8.55;2.85;;;;;;;16.11;88.07;96235.50;5055998;28;20215;-71
2021/08/03 01:38:13;;;;;;;5.22;2.47;;;;;;;16.27;87.21;96237.72;5057383;28;20231;-73
2021/08/03 01:40:43;;;;;;;3.85;2.40;;;;;;;16.27;86.19;96224.44;5057286;28;20200;-72
2021/08/03 01:43:10;;;;;;;6.00;2.47;;;;;;;16.02;86.08;96228.78;5057460;28;20234;-74
2021/08/03 01:45:39;;;;;;;3.90;1.70;;;;;;;16.25;85.72;96228.28;5055850;28;20204;-73
2021/08/03 01:48:09;;;;;;;8.70;2.60;;;;;;;16.15;87.12;96231.41;5057076;28;20205;-71
2021/08/03 01:50:36;;;;;;;4.65;2.97;;;;;;;16.04;88.83;96224.09;5057040;28;20208;-74
2021/08/03 01:53:03;;;;;;;3.92;2.58;;;;;;;16.10;87.98;96223.25;5056543;28;20224;-72
2021/08/03 01:55:32;;;;;;;3.35;2.30;;;;;;;16.11;86.47;96221.41;5056447;28;20285;-73
2021/08/03 01:57:59;;;;;;;4.97;2.85;;;;;;;16.23;86.12;96233.81;5058039;28;20224;-73
2021/08/03 02:00:26;;;;;;;6.57;3.22;;;;;;;16.02;87.37;96231.44;5056132;28;20200;-72
2021/08/03 02:02:54;;;;;;;4.80;2.95;;;;;;;16.12;85.40;96231.81;5056316;28;20229;-72
2021/08/03 02:05:21;;;;;;;3.30;2.47;;;;;;;15.82;85.31;96227.22;5056549;28;20204;-73
2021/08/03 02:07:48;;;;;;;10.27;3.15;;;;;;;15.82;85.20;96229.06;5057512;28;20196;-73
2021/08/03 02:10:14;;;;;;;4.45;2.55;;;;;;;15.85;84.95;96227.63;5056274;28;20210;-73
2021/08/03 02:12:42;;;;;;;3.63;2.60;;;;;;;15.92;85.26;96225.78;5057538;28;20224;-73
2021/08/03 02:15:10;;;;;;;4.05;2.63;;;;;;;15.78;86.56;96214.56;5057870;28;20216;-73
2021/08/03 02:17:37;;;;;;;2.67;2.28;;;;;;;15.66;85.74;96217.06;5060317;28;20224;-72
2021/08/03 02:20:07;;;;;;;3.05;2.00;;;;;;;15.81;84.46;96214.16;5060526;28;20213;-71
2021/08/03 02:22:34;;;;;;;4.93;2.42;;;;;;;15.72;84.42;96200.28;5060228;28;20229;-72
2021/08/03 02:25:00;;;;;;;4.68;2.47;;;;;;;15.57;85.95;96212.19;5060378;28;20201;-73
2021/08/03 02:27:27;;;;;;;5.45;2.65;;;;;;;15.66;86.89;96211.75;5060324;28;20203;-73
2021/08/03 02:29:53;;;;;;;6.07;2.45;;;;;;;15.63;86.93;96208.69;5057168;28;20201;-72
2021/08/03 02:32:23;;;;;;;4.30;2.03;;;;;;;15.69;85.76;96203.34;5060440;28;20224;-73
2021/08/03 02:34:54;;;;;;;3.08;2.40;;;;;;;15.67;85.08;96200.09;5060105;28;20196;-72
2021/08/03 02:37:31;;;;;;;3.85;2.35;;;;;;;15.57;86.81;96210.34;5059332;28;20217;-73
2021/08/03 02:39:58;;;;;;;4.43;2.30;;;;;;;15.49;87.12;96210.56;5060110;28;20204;-71
2021/08/03 02:42:25;;;;;;;4.13;2.60;;;;;;;15.24;87.41;96208.78;5059858;28;20236;-73
2021/08/03 02:44:56;;;;;;;7.70;2.45;;;;;;;15.25;87.69;96197.94;5059483;28;20575;-71
2021/08/03 02:47:27;;;;;;;3.67;3.03;;;;;;;15.28;88.21;96200.16;5059061;28;20193;-73
2021/08/03 02:49:54;;;;;;;7.65;3.00;;;;;;;15.37;88.97;96196.28;5056908;28;20232;-72
2021/08/03 02:52:27;;;;;;;4.65;2.58;;;;;;;15.66;87.07;96187.03;5060720;28;20224;-73
2021/08/03 02:55:01;;;;;;;4.80;2.65;;;;;;;15.63;87.02;96182.94;5060501;28;20210;-71
2021/08/03 02:57:29;;;;;;;9.32;3.15;;;;;;;15.65;87.62;96185.41;5059288;28;20224;-73
2021/08/03 03:00:01;;;;;;;10.63;3.22;;;;;;;15.79;86.96;96187.00;5060673;28;20207;-73
2021/08/03 03:02:29;;;;;;;11.00;3.70;;;;;;;15.65;88.10;96188.06;5059348;28;20227;-73
2021/08/03 03:05:00;;;;;;;7.28;3.22;;;;;;;15.80;88.08;96178.00;5059468;28;20193;-73
2021/08/03 03:07:32;;;;;;;3.58;2.90;;;;;;;15.96;86.93;96179.16;5059519;28;20193;-73
2021/08/03 03:10:02;;;;;;;7.55;3.97;;;;;;;15.96;86.59;96179.16;5060257;28;20205;-73
2021/08/03 03:12:33;;;;;;;7.55;3.20;;;;;;;15.97;86.93;96171.97;5059460;28;20239;-72
2021/08/03 03:15:03;;;;;;;11.70;3.60;;;;;;;15.86;87.15;96177.97;5059409;28;20200;-73
2021/08/03 03:17:35;;;;;;;6.30;3.13;;;;;;;15.81;87.99;96187.56;5059437;28;20231;-73
2021/08/03 03:20:05;;;;;;;4.60;2.92;;;;;;;15.85;87.96;96182.44;5060344;28;21258;-71
2021/08/03 03:22:38;;;;;;;6.25;3.10;;;;;;;15.84;87.84;96175.50;5060066;28;20286;-72
2021/08/03 03:25:06;;;;;;;7.32;2.88;;;;;;;15.79;87.37;96171.03;5060386;28;20208;-72
2021/08/03 03:27:33;;;;;;;3.70;2.63;;;;;;;15.81;87.54;96172.47;5058372;28;20196;-72
2021/08/03 03:30:01;;;;;;;6.15;2.75;;;;;;;15.81;87.60;96171.63;5057600;28;20204;-73
2021/08/03 03:32:30;;;;;;;5.78;2.90;;;;;;;15.76;88.09;96171.44;5059521;28;20224;-72
2021/08/03 03:34:58;;;;;;;11.20;3.38;;;;;;;15.76;87.68;96172.28;5059569;28;20200;-72
2021/08/03 03:37:27;;;;;;;7.32;3.90;;;;;;;15.84;88.15;96171.22;5058278;28;20201;-73
2021/08/03 03:39:57;;;;;;;7.88;4.60;;;;;;;15.81;88.75;96174.28;5059945;28;20208;-73
2021/08/03 03:42:28;;;;;;;9.98;4.32;;;;;;;15.90;87.67;96164.03;5059175;28;20231;-71
2021/08/03 03:44:55;;;;;;;10.10;4.25;;;;;;;15.74;86.97;96169.00;5059219;28;20201;-73
2021/08/03 03:47:27;;;;;;;8.05;3.83;;;;;;;15.87;86.07;96169.78;5058147;28;20688;-72
2021/08/03 03:49:59;;;;;;;9.07;3.50;;;;;;;15.75;86.45;96161.88;5059098;28;20204;-71
2021/08/03 03:52:31;;;;;;;9.57;2.80;;;;;;;15.73;85.43;96155.94;5058528;28;20224;-71
2021/08/03 03:55:00;;;;;;;3.47;2.70;;;;;;;15.60;86.40;96158.63;5057439;28;20205;-72
2021/08/03 03:57:29;;;;;;;9.40;3.15;;;;;;;15.55;86.71;96163.75;5058235;28;20204;-73
2021/08/03 03:59:58;;;;;;;6.18;2.90;;;;;;;15.69;85.60;96160.84;5059274;28;20319;-71
2021/08/03 04:02:26;;;;;;;4.93;2.53;;;;;;;15.46;85.52;96160.50;5058475;28;20323;-71
2021/08/03 04:04:53;;;;;;;4.65;2.65;;;;;;;15.41;85.84;96154.19;5058805;28;20205;-72
2021/08/03 04:07:20;;;;;;;6.22;2.63;;;;;;;15.29;86.02;96155.88;5058115;28;20672;-72
2021/08/03 04:09:46;;;;;;;5.90;2.25;;;;;;;15.11;86.52;96158.31;5059284;28;20564;-72
2021/08/03 04:12:14;;;;;;;4.05;2.20;;;;;;;15.23;86.64;96158.53;5059244;28;20221;-72
2021/08/03 04:14:42;;;;;;;3.97;2.67;;;;;;;15.15;88.23;96158.69;5058770;28;20224;-73
2021/08/03 04:17:09;;;;;;;7.40;2.63;;;;;;;15.13;88.01;96163.41;5058071;28;20216;-73
2021/08/03 04:19:36;;;;;;;5.38;2.85;;;;;;;15.29;88.17;96164.63;5058749;28;20224;-72
2021/08/03 04:22:02;;;;;;;4.20;2.65;;;;;;;15.45;86.16;96166.88;5058405;28;20231;-72
2021/08/03 04:24:29;;;;;;;9.27;2.63;;;;;;;15.41;85.83;96172.78;5058353;28;20200;-73
2021/08/03 04:26:56;;;;;;;3.42;2.22;;;;;;;15.54;85.56;96167.44;5057893;28;20197;-73
2021/08/03 04:29:24;;;;;;;4.78;2.22;;;;;;;15.57;86.30;96167.84;5055904;28;20201;-71
2021/08/03 04:31:50;;;;;;;3.95;2.50;;;;;;;15.36;86.69;96168.13;5058546;28;20232;-73
2021/08/03 04:34:17;;;;;;;5.70;3.15;;;;;;;15.54;87.07;96162.13;5057642;28;20197;-72
2021/08/03 04:36:43;;;;;;;5.75;3.05;;;;;;;15.56;87.35;96160.09;5057677;28;20200;-71
2021/08/03 04:39:11;;;;;;;4.13;3.03;;;;;;;15.59;87.69;96154.34;5057151;28;20228;-73
2021/08/03 04:41:38;;;;;;;8.00;2.95;;;;;;;15.71;87.86;96156.16;5058083;28;20227;-72
2021/08/03 04:44:05;;;;;;;6.22;2.63;;;;;;;15.77;87.42;96159.78;5057646;28;20213;-73
2021/08/03 04:46:33;;;;;;;4.20;2.60;;;;;;;15.89;87.57;96157.09;5057411;28;20216;-71
2021/08/03 04:49:00;;;;;;;3.42;2.50;;;;;;;15.98;87.57;96152.34;5057623;28;20192;-72
2021/08/03 04:51:26;;;;;;;6.05;3.10;;;;;;;16.09;87.79;96168.44;5058405;28;20217;-73
2021/08/03 04:53:53;;;;;;;7.72;3.70;;;;;;;16.18;88.17;96161.84;5057282;28;20200;-71
2021/08/03 04:56:20;;;;;;;6.55;3.47;;;;;;;16.37;88.49;96155.63;5056520;28;20673;-72
2021/08/03 04:58:46;;;;;;;4.63;3.10;;;;;;;16.48;88.63;96161.09;5057136;28;20217;-73
2021/08/03 05:01:13;;;;;;;10.90;4.00;;;;;;;16.61;88.44;96152.19;5057816;28;20219;-74
2021/08/03 05:03:41;;;;;;;8.60;3.97;;;;;;;16.77;88.31;96149.00;5057054;28;20201;-70
2021/08/03 05:06:07;;;;;;;8.52;3.95;;;;;;;16.76;89.06;96155.34;5056660;28;20196;-73
2021/08/03 05:08:34;;;;;;;9.57;4.43;;;;;;;16.86;88.20;96153.03;5057141;28;20192;-70
2021/08/03 05:11:00;;;;;;;9.35;4.38;;;;;;;16.94;87.97;96144.75;5057110;28;20216;-74
2021/08/03 05:13:26;;;;;;;6.40;4.15;;;;;;;16.86;88.36;96153.03;5057072;28;20662;-71
2021/08/03 05:15:53;;;;;;;10.60;4.97;;;;;;;16.67;87.60;96156.66;5055797;28;20736;-71
2021/08/03 05:18:19;;;;;;;10.07;5.35;;;;;;;16.85;86.64;96154.06;5056857;28;20227;-73
2021/08/03 05:20:47;;;;;;;6.38;4.50;;;;;;;16.95;86.46;96149.06;5056754;28;20660;-71
2021/08/03 05:23:14;;;;;;;9.82;3.97;;;;;;;17.05;87.32;96150.19;5057166;28;20291;-73
2021/08/03 05:25:40;;;;;;;10.27;4.72;;;;;;;17.11;87.26;96142.13;5056312;28;20200;-73
2021/08/03 05:28:08;;;;;;;9.70;4.97;;;;;;;17.10;87.58;96143.16;5057216;28;20200;-74
2021/08/03 05:30:34;;;;;;;8.77;4.50;;;;;;;17.16;88.54;96144.97;5053676;28;20250;-72
2021/08/03 05:33:01;;;;;;;8.35;4.57;;;;;;;17.00;86.49;96146.56;5057075;28;20223;-72
2021/08/03 05:35:27;;;;;;;8.88;4.70;;;;;;;17.16;85.94;96144.97;5056309;28;20211;-73
2021/08/03 05:37:55;;;;;;;12.27;5.03;;;;;;;17.36;87.07;96136.81;5057355;28;20691;-73
2021/08/03 05:40:22;;;;;;;6.50;4.00;;;;;;;16.74;87.61;96136.16;5055930;28;20200;-72
2021/08/03 05:42:48;;;;;;;7.85;3.70;;;;;;;16.76;87.02;96140.22;5056953;28;21257;-71
2021/08/03 05:45:15;;;;;;;6.82;4.40;;;;;;;17.27;87.48;96125.63;5056764;28;20200;-74
2021/08/03 05:47:41;;;;;;;6.13;3.95;;;;;;;17.35;87.23;96127.19;5056598;28;20193;-73
2021/08/03 05:50:09;;;;;;;7.00;4.05;;;;;;;17.67;85.39;96124.16;5059463;28;20723;-70
2021/08/03 05:52:35;;;;;;;7.28;3.67;;;;;;;17.59;84.84;96120.97;5061163;28;20708;-71
2021/08/03 05:55:03;;;;;;;7.82;3.83;;;;;;;17.59;83.01;96121.81;5060256;28;20200;-71
2021/08/03 05:57:30;;;;;;;7.65;4.00;;;;;;;17.48;84.28;96124.41;5059773;28;20579;-73
2021/08/03 05:59:57;;;;;;;7.25;4.15;;;;;;;17.79;85.01;96127.69;5061098;28;20327;-70
2021/08/03 06:02:23;;;;;;;8.73;4.38;;;;;;;17.56;86.68;96126.75;5061212;28;20224;-73
2021/08/03 06:04:50;;;;;;;11.15;4.43;;;;;;;17.73;84.61;96128.56;5060091;28;20204;-71
2021/08/03 06:07:18;;;;;;;6.97;3.72;;;;;;;17.67;84.46;96126.81;5059928;28;20201;-71
2021/08/03 06:09:45;;;;;;;7.63;3.80;;;;;;;17.55;84.99;96136.56;5060696;28;20192;-73
2021/08/03 06:12:13;;;;;;;8.88;3.92;;;;;;;18.02;83.77;96131.28;5060400;28;20656;-71
2021/08/03 06:14:42;;;;;;;5.60;3.90;;;;;;;17.99;82.72;96131.75;5060260;28;20408;-70
2021/08/03 06:17:10;;;;;;;8.73;4.20;;;;;;;18.11;83.50;96134.47;5059493;28;20212;-69
2021/08/03 06:19:42;;;;;;;6.03;3.67;;;;;;;18.58;83.12;96129.91;5060279;28;20224;-69
2021/08/03 06:22:09;;;;;;;5.53;3.92;;;;;;;18.43;84.42;96131.34;5057332;28;20248;-68
2021/08/03 06:24:38;;;;;;;8.25;4.00;;;;;;;18.17;83.06;96130.91;5059916;28;20668;-69
2021/08/03 06:27:06;;;;;;;7.28;3.92;;;;;;;18.36;83.93;96130.66;5058474;28;20298;-69
2021/08/03 06:29:37;;;;;;;7.78;4.10;;;;;;;18.59;83.73;96126.19;5055936;28;20752;-69
2021/08/03 06:32:04;;;;;;;5.57;3.67;;;;;;;18.66;81.94;96126.91;5059392;28;20220;-69
2021/08/03 06:34:33;;;;;;;8.52;4.10;;;;;;;18.42;84.08;96132.41;5058682;28;20216;-69
2021/08/03 06:37:00;;;;;;;4.75;3.65;;;;;;;18.42;82.01;96117.22;5057910;28;20200;-68
2021/08/03 06:39:26;;;;;;;9.23;3.30;;;;;;;18.10;83.83;96124.81;5059122;28;20232;-69
2021/08/03 06:41:58;;;;;;;6.05;3.35;;;;;;;18.28;83.69;96132.81;5059381;28;20223;-69
2021/08/03 06:44:31;;;;;;;9.25;3.67;;;;;;;18.67;83.21;96135.72;5059372;28;20232;-69
2021/08/03 06:47:00;;;;;;;11.18;3.80;;;;;;;18.56;83.34;96132.00;5058379;28;20201;-69
2021/08/03 06:49:32;;;;;;;7.05;3.17;;;;;;;18.79;82.62;96136.53;5059591;28;20201;-68
2021/08/03 06:51:59;;;;;;;8.00;3.83;;;;;;;18.80;84.25;96130.16;5059085;28;20216;-69
2021/08/03 06:54:29;;;;;;;4.90;3.70;;;;;;;19.03;81.99;96133.72;5059785;28;20680;-70
2021/08/03 06:57:03;;;;;;;7.13;4.13;;;;;;;18.98;84.00;96131.72;5058969;28;20709;-71
2021/08/03 06:59:33;;;;;;;7.00;3.80;;;;;;;19.06;81.86;96135.94;5058531;28;20219;-69
2021/08/03 07:02:06;;;;;;;5.85;3.92;;;;;;;19.03;81.77;96134.50;5057931;28;20220;-70
2021/08/03 07:04:37;;;;;;;6.43;4.25;;;;;;;19.23;81.16;96131.50;5054633;28;20200;-69
2021/08/03 07:07:05;;;;;;;7.70;3.70;;;;;;;19.29;81.30;96127.94;5058366;28;20248;-71
2021/08/03 07:09:31;;;;;;;6.10;3.70;;;;;;;19.17;80.41;96133.28;5058641;28;20275;-71
2021/08/03 07:11:58;;;;;;;5.70;2.70;;;;;;;19.67;79.66;96123.69;5058271;28;20228;-69
2021/08/03 07:14:26;;;;;;;4.85;3.35;;;;;;;19.26;80.60;96131.88;5059127;28;20197;-71
2021/08/03 07:16:53;;;;;;;10.15;3.88;;;;;;;19.29;80.70;96133.28;5057707;28;20303;-71
2021/08/03 07:19:23;;;;;;;7.13;3.80;;;;;;;19.66;80.51;96128.22;5058799;28;20703;-70
2021/08/03 07:21:50;;;;;;;8.52;4.10;;;;;;;19.94;82.02;96128.31;5058439;28;21078;-70
2021/08/03 07:24:18;;;;;;;5.80;4.20;;;;;;;19.91;80.28;96128.78;5058292;28;20334;-71
2021/08/03 07:26:46;;;;;;;4.90;3.80;;;;;;;20.16;79.45;96129.28;5057145;28;20201;-70
2021/08/03 07:29:12;;;;;;;9.27;3.88;;;;;;;19.88;78.95;96121.22;5057605;28;20207;-70
2021/08/03 07:31:41;;;;;;;5.47;3.67;;;;;;;19.59;79.78;96122.19;5056004;28;20224;-69
2021/08/03 07:34:09;;;;;;;6.00;3.47;;;;;;;19.43;81.00;96129.31;5058455;28;20212;-70
2021/08/03 07:36:38;;;;;;;5.30;3.63;;;;;;;19.79;80.30;96125.31;5057059;28;20196;-70
2021/08/03 07:39:05;;;;;;;5.53;3.90;;;;;;;19.81;79.57;96125.88;5058159;28;20237;-70
2021/08/03 07:41:32;;;;;;;9.05;3.70;;;;;;;20.10;79.89;96126.75;5058459;28;20220;-71
2021/08/03 07:43:59;;;;;;;5.28;3.60;;;;;;;20.24;78.80;96128.91;5057822;28;20203;-71
2021/08/03 07:46:25;;;;;;;6.15;3.60;;;;;;;20.14;79.74;96134.06;5057772;28;20204;-71
2021/08/03 07:48:52;;;;;;;7.25;4.05;;;;;;;20.13;78.85;96132.44;5058108;28;20200;-70
2021/08/03 07:51:19;;;;;;;5.82;3.80;;;;;;;20.52;78.04;96132.38;5058813;28;20220;-69
2021/08/03 07:53:48;;;;;;;6.70;3.40;;;;;;;20.83;77.07;96123.06;5057283;28;20746;-71
2021/08/03 07:56:15;;;;;;;6.18;3.35;;;;;;;20.92;75.33;96127.75;5057538;28;20207;-70
2021/08/03 07:58:42;;;;;;;5.18;3.15;;;;;;;20.86;76.91;96129.53;5057831;28;20192;-70
2021/08/03 08:01:09;;;;;;;8.98;4.13;;;;;;;21.33;77.03;96125.44;5057708;28;20959;-71
2021/08/03 08:03:37;;;;;;;6.47;3.50;;;;;;;21.76;74.84;96120.19;5057224;28;20200;-71
2021/08/03 08:06:05;;;;;;;5.95;3.75;;;;;;;21.74;74.54;96128.50;5056952;28;20200;-70
2021/08/03 08:08:31;;;;;;;4.88;3.58;;;;;;;21.80;74.63;96126.69;5057551;28;20200;-71
2021/08/03 08:11:00;;;;;;;8.52;3.20;;;;;;;21.85;72.26;96118.69;5057148;28;20673;-70
2021/08/03 08:13:26;;;;;;;7.38;3.55;;;;;;;21.77;74.42;96128.00;5057315;28;20334;-70
2021/08/03 08:15:53;;;;;;;10.23;4.15;;;;;;;21.55;74.89;96131.72;5056862;28;20212;-71
2021/08/03 08:18:19;;;;;;;5.28;3.53;;;;;;;20.79;75.79;96138.78;5056938;28;20547;-69
2021/08/03 08:20:47;;;;;;;4.78;2.97;;;;;;;21.21;74.59;96145.38;5055573;28;20228;-70
2021/08/03 08:23:15;;;;;;;9.35;3.58;;;;;;;21.42;75.22;96140.06;5059092;28;20204;-70
2021/08/03 08:25:42;;;;;;;7.07;3.17;;;;;;;21.48;75.06;96139.88;5054738;28;20196;-70
2021/08/03 08:28:10;;;;;;;4.65;3.53;;;;;;;21.35;74.23;96144.78;5057963;28;20212;-71
2021/08/03 08:30:38;;;;;;;5.93;3.42;;;;;;;21.22;74.06;96141.63;5057341;28;20197;-71
2021/08/03 08:33:05;;;;;;;5.95;3.20;;;;;;;21.26;74.63;96140.09;5057768;28;20228;-71
2021/08/03 08:35:32;;;;;;;5.65;3.22;;;;;;;21.17;73.39;96137.00;5055529;28;20222;-70
2021/08/03 08:37:59;;;;;;;6.85;3.47;;;;;;;21.39;73.47;96140.56;5057441;28;20247;-70
2021/08/03 08:40:26;;;;;;;6.10;3.80;;;;;;;21.70;73.26;96140.78;5056641;28;20216;-72
2021/08/03 08:42:52;;;;;;;7.60;2.90;;;;;;;21.90;71.95;96137.56;5056516;28;20224;-70
2021/08/03 08:45:20;;;;;;;7.82;3.42;;;;;;;22.15;70.96;96136.00;5057007;28;20569;-71
2021/08/03 08:47:48;;;;;;;7.60;3.75;;;;;;;22.30;71.25;96138.88;5056797;28;20581;-71
2021/08/03 08:50:20;;;;;;;7.28;3.17;;;;;;;22.15;71.69;96146.72;5056871;28;21123;-71
2021/08/03 08:52:49;;;;;;;7.10;3.58;;;;;;;21.49;74.06;96140.72;5057066;28;20216;-71
2021/08/03 08:55:16;;;;;;;6.30;3.17;;;;;;;21.99;72.67;96136.84;5056912;28;20205;-70
2021/08/03 08:57:43;;;;;;;6.22;3.22;;;;;;;21.86;72.84;96136.44;5056824;28;20565;-72
2021/08/03 09:00:11;;;;;;;5.95;2.88;;;;;;;22.04;73.88;96137.72;5057225;28;20468;-72
2021/08/03 09:02:40;;;;;;;5.07;3.33;;;;;;;21.99;71.93;96130.69;5056326;28;20704;-71
2021/08/03 09:05:08;;;;;;;7.60;3.30;;;;;;;21.82;74.69;96129.94;5056469;28;20200;-70
2021/08/03 09:07:47;;;;;;;5.55;3.78;;;;;;;22.08;72.46;96133.50;5056066;28;20200;-70
2021/08/03 09:10:27;;;;;;;4.65;2.67;;;;;;;22.18;73.46;96122.84;5057175;28;20279;-70
2021/08/03 09:12:59;;;;;;;7.75;3.40;;;;;;;22.22;71.38;96134.75;5056710;28;20231;-71
2021/08/03 09:15:26;;;;;;;6.22;3.47;;;;;;;21.94;71.62;96134.09;5055071;28;20208;-70
2021/08/03 09:17:53;;;;;;;7.18;3.05;;;;;;;22.49;71.03;96132.94;5056523;28;20212;-72
2021/08/03 09:20:21;;;;;;;4.57;2.83;;;;;;;22.39;70.41;96131.97;5056098;28;20998;-70
2021/08/03 09:22:48;;;;;;;5.47;2.83;;;;;;;22.53;69.92;96127.84;5054670;28;20224;-70
2021/08/03 09:25:16;;;;;;;5.60;3.22;;;;;;;22.55;69.61;96128.41;5052979;28;20200;-71
2021/08/03 09:27:45;;;;;;;5.90;3.00;;;;;;;22.95;69.93;96126.88;5052153;28;20192;-71
2021/08/03 09:30:28;;;;;;;5.68;2.83;;;;;;;23.30;68.63;96128.81;5055807;28;20319;-69
2021/08/03 09:32:56;;;;;;;7.18;2.95;;;;;;;22.57;69.63;96126.25;5055628;28;20227;-72
2021/08/03 09:35:24;;;;;;;4.70;2.90;;;;;;;22.84;69.59;96131.38;5055571;28;20193;-72
2021/08/03 09:37:52;;;;;;;6.88;3.30;;;;;;;23.04;67.74;96126.22;5055238;28;20461;-72
2021/08/03 09:40:22;;;;;;;5.80;3.17;;;;;;;23.27;70.58;96119.66;5055706;28;20224;-71
2021/08/03 09:43:03;;;;;;;10.52;3.10;;;;;;;23.74;65.41;96114.09;5056226;28;20231;-72
2021/08/03 09:45:32;;;;;;;5.35;3.03;;;;;;;23.53;65.22;96115.00;5054584;28;20196;-72
2021/08/03 09:48:12;;;;;;;5.78;2.90;;;;;;;23.63;63.91;96120.44;5055761;28;20211;-72
2021/08/03 09:50:55;;;;;;;4.90;2.80;;;;;;;23.52;65.70;96124.16;5055178;28;20204;-72
2021/08/03 09:53:42;;;;;;;6.22;3.20;;;;;;;23.73;67.13;96119.75;5054690;28;20192;-72
2021/08/03 09:56:11;;;;;;;4.45;2.67;;;;;;;23.21;67.87;96120.72;5054758;28;20247;-72
2021/08/03 09:58:53;;;;;;;3.58;2.55;;;;;;;23.49;68.56;96116.59;5055683;28;20204;-72
2021/08/03 10:01:25;;;;;;;4.38;2.80;;;;;;;23.48;64.01;96109.59;5053038;28;20813;-72
2021/08/03 10:03:54;;;;;;;5.25;2.50;;;;;;;23.58;67.60;96104.25;5055846;28;20196;-72
2021/08/03 10:06:21;;;;;;;4.45;2.63;;;;;;;23.59;67.32;96097.81;5054622;28;20200;-72
2021/08/03 10:08:49;;;;;;;4.43;2.63;;;;;;;23.92;63.07;96097.50;5052161;28;20200;-73
2021/08/03 10:11:16;;;;;;;6.70;2.47;;;;;;;24.36;64.63;96099.50;5055222;28;20220;-72
2021/08/03 10:13:44;;;;;;;3.42;2.70;;;;;;;24.65;62.47;96101.50;5055510;28;20200;-73
2021/08/03 10:16:11;;;;;;;4.80;2.40;;;;;;;24.56;61.29;96109.59;5054256;28;20225;-72
2021/08/03 10:18:40;;;;;;;4.07;2.30;;;;;;;23.76;61.46;96103.84;5055436;28;20201;-72
2021/08/03 10:21:16;;;;;;;4.50;2.78;;;;;;;23.57;65.28;96096.47;5055543;28;20299;-73
2021/08/03 10:23:45;;;;;;;3.67;2.38;;;;;;;23.20;66.41;96097.56;5054606;28;20200;-72
2021/08/03 10:26:13;;;;;;;5.35;2.60;;;;;;;24.08;65.93;96088.38;5051898;28;20220;-72
2021/08/03 10:28:40;;;;;;;8.68;2.67;;;;;;;24.55;62.43;96089.09;5055912;28;20228;-72
2021/08/03 10:31:41;;;;;;;4.72;2.55;;;;;;;24.67;61.08;96079.69;5056247;28;20220;-72
2021/08/03 10:34:08;;;;;;;4.10;2.45;;;;;;;24.57;63.81;96080.47;5055662;28;20211;-73
2021/08/03 10:36:49;;;;;;;3.80;2.40;;;;;;;24.21;59.70;96074.41;5057352;28;20204;-72
2021/08/03 10:39:17;;;;;;;3.40;2.30;;;;;;;24.20;64.57;96081.69;5058508;28;20655;-72
2021/08/03 10:42:07;;;;;;;9.30;3.10;;;;;;;24.78;63.60;96070.53;5059543;28;20220;-72
2021/08/03 10:44:43;;;;;;;3.50;2.10;;;;;;;24.83;60.85;96068.63;5058819;28;20204;-72
2021/08/03 10:47:44;;;;;;;7.55;2.45;;;;;;;24.96;57.87;96073.50;5058632;28;20209;-72
2021/08/03 10:50:14;;;;;;;4.28;2.22;;;;;;;24.80;59.87;96068.38;5053530;28;20576;-73
2021/08/03 10:52:52;;;;;;;2.88;2.20;;;;;;;25.14;60.57;96075.69;5059230;28;20228;-72
2021/08/03 10:55:41;;;;;;;3.17;2.22;;;;;;;25.14;56.91;96075.69;5057343;28;20208;-72
2021/08/03 10:58:28;;;;;;;3.35;2.30;;;;;;;25.08;58.67;96067.88;5059157;28;20204;-72
2021/08/03 11:00:56;;;;;;;3.97;2.25;;;;;;;24.79;56.48;96062.16;5059449;28;20609;-72
2021/08/03 11:03:44;;;;;;;3.40;2.22;;;;;;;25.23;58.64;96060.56;5059103;28;20209;-72
2021/08/03 11:06:38;;;;;;;3.15;2.10;;;;;;;25.62;58.86;96056.16;5057964;28;20200;-72
2021/08/03 11:09:34;;;;;;;3.83;2.17;;;;;;;25.13;59.22;96051.66;5058709;28;20219;-72
2021/08/03 11:12:36;;;;;;;3.97;2.30;;;;;;;24.37;58.05;96055.34;5058482;28;20671;-72
2021/08/03 11:15:40;;;;;;;3.35;2.00;;;;;;;24.26;57.26;96039.44;5059245;28;20200;-72
2021/08/03 11:18:10;;;;;;;3.28;2.13;;;;;;;24.38;60.14;96024.69;5058197;28;20200;-72
2021/08/03 11:21:15;;;;;;;4.18;2.10;;;;;;;24.25;60.62;96029.72;5057867;28;20224;-72
2021/08/03 11:24:02;;;;;;;7.53;2.60;;;;;;;24.18;61.22;96029.19;5058425;28;20732;-72
2021/08/03 11:26:30;;;;;;;4.90;2.50;;;;;;;23.60;62.37;96039.44;5055640;28;20204;-72
2021/08/03 11:29:03;;;;;;;4.95;2.20;;;;;;;23.53;60.26;96034.28;5057512;28;20201;-72
2021/08/03 11:31:50;;;;;;;3.45;2.00;;;;;;;23.58;61.24;96037.00;5058072;28;20594;-72
2021/08/03 11:34:19;;;;;;;5.38;2.58;;;;;;;23.43;64.78;96034.25;5057946;28;20261;-72
2021/08/03 11:37:16;;;;;;;4.90;2.33;;;;;;;23.12;64.20;96044.28;5057225;28;20286;-72
2021/08/03 11:39:49;;;;;;;4.78;3.03;;;;;;;23.04;62.52;96034.81;5057248;28;20192;-72
2021/08/03 11:42:21;;;;;;;2.72;2.00;;;;;;;22.94;63.52;96042.78;5058563;28;20217;-72
2021/08/03 11:45:01;;;;;;;4.30;1.90;;;;;;;22.71;63.25;96050.41;5057435;28;20200;-72
2021/08/03 11:47:38;;;;;;;7.45;2.10;;;;;;;22.57;64.55;96057.25;5057019;28;20677;-71